createdAt,value
2017-10-03T00:00:39.696Z,12.40
2017-10-03T00:03:08.773Z,12.30
2017-10-03T00:05:37.782Z,12.40
2017-10-03T00:08:07.787Z,12.30
2017-10-03T00:10:37.598Z,12.30
2017-10-03T00:13:06.600Z,12.40
2017-10-03T00:15:35.942Z,12.30
2017-10-03T00:18:05.732Z,12.30
2017-10-03T00:20:35.471Z,12.30
2017-10-03T00:23:05.264Z,12.20
2017-10-03T00:25:34.211Z,12.30
2017-10-03T00:28:03.928Z,12.40
2017-10-03T00:30:32.910Z,12.40
2017-10-03T00:33:01.852Z,12.40
2017-10-03T00:35:30.810Z,12.40
2017-10-03T00:37:59.764Z,12.40
2017-10-03T00:40:28.744Z,12.40
2017-10-03T00:42:57.703Z,12.40
2017-10-03T00:45:26.694Z,12.40
2017-10-03T00:47:55.657Z,12.40
2017-10-03T00:50:24.661Z,12.40
2017-10-03T00:52:53.616Z,12.50
2017-10-03T00:55:23.355Z,12.50
2017-10-03T00:57:52.349Z,12.40
2017-10-03T01:00:22.443Z,12.40
2017-10-03T01:02:51.516Z,12.30
2017-10-03T01:05:20.929Z,12.20
2017-10-03T01:07:49.910Z,12.30
2017-10-03T01:10:19.668Z,12.30
2017-10-03T01:12:49.397Z,12.30
2017-10-03T01:15:18.833Z,12.40
2017-10-03T01:17:48.532Z,12.30
2017-10-03T01:20:17.509Z,12.30
2017-10-03T01:22:46.449Z,12.20
2017-10-03T01:25:15.426Z,12.20
2017-10-03T01:27:44.876Z,12.30
2017-10-03T01:30:14.635Z,12.30
2017-10-03T01:32:44.355Z,12.20
2017-10-03T01:35:13.722Z,12.20
2017-10-03T01:37:54.709Z,12.30
2017-10-03T01:40:24.076Z,12.20
2017-10-03T01:42:53.026Z,12.20
2017-10-03T01:45:24.589Z,12.10
2017-10-03T01:47:53.645Z,12.20
2017-10-03T01:50:22.632Z,12.30
2017-10-03T01:52:52.342Z,12.30
2017-10-03T01:55:21.323Z,12.30
2017-10-03T01:57:51.062Z,12.30
2017-10-03T02:00:20.885Z,12.20
2017-10-03T02:02:50.623Z,12.20
2017-10-03T02:05:19.576Z,12.10
2017-10-03T02:07:48.543Z,12.10
2017-10-03T02:10:17.538Z,12.10
2017-10-03T02:12:46.570Z,12.00
2017-10-03T02:15:15.552Z,12.00
2017-10-03T02:17:44.914Z,12.00
2017-10-03T02:20:14.646Z,12.00
2017-10-03T02:22:44.388Z,12.10
2017-10-03T02:25:13.763Z,12.00
2017-10-03T02:27:42.728Z,12.00
2017-10-03T02:30:11.705Z,12.00
2017-10-03T02:32:41.553Z,12.00
2017-10-03T02:35:12.638Z,11.90
2017-10-03T02:37:41.700Z,11.80
2017-10-03T02:40:10.671Z,11.90
2017-10-03T02:42:40.418Z,11.90
2017-10-03T02:45:09.396Z,11.80
2017-10-03T02:47:38.764Z,12.00
2017-10-03T02:50:07.717Z,11.90
2017-10-03T02:52:37.947Z,11.90
2017-10-03T02:55:07.210Z,11.80
2017-10-03T02:57:36.575Z,11.90
2017-10-03T03:00:05.521Z,11.90
2017-10-03T03:02:34.550Z,11.90
2017-10-03T03:05:04.278Z,11.80
2017-10-03T03:07:34.007Z,11.80
2017-10-03T03:10:03.763Z,11.80
2017-10-03T03:12:33.496Z,11.90
2017-10-03T03:15:02.474Z,11.80
2017-10-03T03:17:31.416Z,11.80
2017-10-03T03:20:00.476Z,11.80
2017-10-03T03:22:29.828Z,11.80
2017-10-03T03:24:58.785Z,11.80
2017-10-03T03:27:28.679Z,11.90
2017-10-03T03:29:57.645Z,11.90
2017-10-03T03:32:26.733Z,11.80
2017-10-03T03:34:55.745Z,11.80
2017-10-03T03:37:24.704Z,11.80
2017-10-03T03:39:54.435Z,11.80
2017-10-03T03:42:23.884Z,11.80
2017-10-03T03:44:53.208Z,11.90
2017-10-03T03:47:22.181Z,11.90
2017-10-03T03:49:51.532Z,12.00
2017-10-03T03:52:20.508Z,11.90
2017-10-03T03:54:49.487Z,11.90
2017-10-03T03:57:19.242Z,11.90
2017-10-03T03:59:48.264Z,11.90
2017-10-03T04:02:18.057Z,11.80
2017-10-03T04:04:47.403Z,11.80
2017-10-03T04:07:16.451Z,11.80
2017-10-03T04:09:46.180Z,11.70
2017-10-03T04:12:15.568Z,11.60
2017-10-03T04:14:44.522Z,11.60
2017-10-03T04:17:13.561Z,11.60
2017-10-03T04:19:43.499Z,11.50
2017-10-03T04:22:13.221Z,11.60
2017-10-03T04:24:42.184Z,11.60
2017-10-03T04:27:11.256Z,11.70
2017-10-03T04:29:40.597Z,11.60
2017-10-03T04:32:09.596Z,11.60
2017-10-03T04:34:38.562Z,11.60
2017-10-03T04:37:07.908Z,11.60
2017-10-03T04:39:37.079Z,11.60
2017-10-03T04:42:06.828Z,11.60
2017-10-03T04:44:35.806Z,11.50
2017-10-03T04:47:05.531Z,11.40
2017-10-03T04:49:34.561Z,11.50
2017-10-03T04:52:03.635Z,11.50
2017-10-03T04:54:32.699Z,11.60
2017-10-03T04:57:01.682Z,11.50
2017-10-03T04:59:30.675Z,11.30
2017-10-03T05:02:00.394Z,11.40
2017-10-03T05:04:29.769Z,11.30
2017-10-03T05:06:59.117Z,11.30
2017-10-03T05:09:28.856Z,11.40
2017-10-03T05:11:58.127Z,11.50
2017-10-03T05:14:27.076Z,11.50
2017-10-03T05:16:56.828Z,11.50
2017-10-03T05:19:26.536Z,11.60
2017-10-03T05:21:56.293Z,11.60
2017-10-03T05:24:25.673Z,11.50
2017-10-03T05:26:54.667Z,11.50
2017-10-03T05:29:23.683Z,11.60
2017-10-03T05:31:53.468Z,11.40
2017-10-03T05:34:22.421Z,11.50
2017-10-03T05:36:52.209Z,11.40
2017-10-03T05:39:21.144Z,11.50
2017-10-03T05:41:50.508Z,11.50
2017-10-03T05:44:19.452Z,11.50
2017-10-03T05:46:48.833Z,11.50
2017-10-03T05:49:18.191Z,11.50
2017-10-03T05:51:47.165Z,11.40
2017-10-03T05:54:16.799Z,11.30
2017-10-03T05:56:45.792Z,11.30
2017-10-03T05:59:15.544Z,11.30
2017-10-03T06:01:45.288Z,11.30
2017-10-03T06:04:14.646Z,11.40
2017-10-03T06:06:44.396Z,11.40
2017-10-03T06:09:13.336Z,11.50
2017-10-03T06:11:42.746Z,11.40
2017-10-03T06:14:12.461Z,11.50
2017-10-03T06:16:41.799Z,11.50
2017-10-03T06:19:10.984Z,11.50
2017-10-03T06:21:40.332Z,11.60
2017-10-03T06:24:09.744Z,11.60
2017-10-03T06:26:38.902Z,11.60
2017-10-03T06:29:08.026Z,11.60
2017-10-03T06:31:37.531Z,11.70
2017-10-03T06:34:06.755Z,11.70
2017-10-03T06:36:35.846Z,11.70
2017-10-03T06:39:04.877Z,11.90
2017-10-03T06:41:33.960Z,12.10
2017-10-03T06:44:05.227Z,12.30
2017-10-03T06:46:37.256Z,12.50
2017-10-03T06:49:06.331Z,12.50
2017-10-03T06:51:36.132Z,12.50
2017-10-03T06:54:05.352Z,12.70
2017-10-03T06:56:34.606Z,12.70
2017-10-03T06:59:03.646Z,12.70
2017-10-03T07:01:32.696Z,12.50
2017-10-03T07:04:02.144Z,12.60
2017-10-03T07:06:31.674Z,12.60
2017-10-03T07:09:00.876Z,12.60
2017-10-03T07:11:29.889Z,12.60
2017-10-03T07:14:00.477Z,12.50
2017-10-03T07:16:29.969Z,12.60
2017-10-03T07:18:58.962Z,12.60
2017-10-03T07:21:28.146Z,12.80
2017-10-03T07:23:57.639Z,12.80
2017-10-03T07:26:27.701Z,12.80
2017-10-03T07:28:57.538Z,12.90
2017-10-03T07:31:26.566Z,13.10
2017-10-03T07:33:56.864Z,13.20
2017-10-03T07:36:25.963Z,13.40
2017-10-03T07:38:55.037Z,13.40
2017-10-03T07:41:24.551Z,13.60
2017-10-03T07:43:53.517Z,13.60
2017-10-03T07:46:22.564Z,13.40
2017-10-03T07:48:53.177Z,13.40
2017-10-03T07:51:22.224Z,13.40
2017-10-03T07:53:52.955Z,13.60
2017-10-03T07:56:22.495Z,13.70
2017-10-03T07:58:51.879Z,13.70
2017-10-03T08:01:21.837Z,13.80
2017-10-03T08:03:51.324Z,13.70
2017-10-03T08:06:20.473Z,13.70
2017-10-03T08:08:50.363Z,13.80
2017-10-03T08:11:20.182Z,13.90
2017-10-03T08:13:49.988Z,13.90
2017-10-03T08:16:20.297Z,14.10
2017-10-03T08:18:50.127Z,14.10
2017-10-03T08:21:19.098Z,14.30
2017-10-03T08:23:48.521Z,14.50
2017-10-03T08:26:19.237Z,14.30
2017-10-03T08:28:48.663Z,14.40
2017-10-03T08:31:17.665Z,14.30
2017-10-03T08:33:47.150Z,14.20
2017-10-03T08:36:16.187Z,14.30
2017-10-03T08:38:45.456Z,14.40
2017-10-03T08:41:14.484Z,14.60
2017-10-03T08:43:47.339Z,14.60
2017-10-03T08:46:16.862Z,14.80
2017-10-03T08:48:46.945Z,14.90
2017-10-03T08:51:16.821Z,15.00
2017-10-03T08:53:45.862Z,15.10
2017-10-03T08:56:15.710Z,15.20
2017-10-03T08:58:45.430Z,15.30
2017-10-03T09:01:15.080Z,15.30
2017-10-03T09:03:44.166Z,15.50
2017-10-03T09:06:14.374Z,15.50
2017-10-03T09:08:44.104Z,15.60
2017-10-03T09:11:14.566Z,15.70
2017-10-03T09:13:44.227Z,15.50
2017-10-03T09:16:13.637Z,15.50
2017-10-03T09:18:43.443Z,15.60
2017-10-03T09:21:13.245Z,15.80
2017-10-03T09:23:42.688Z,15.90
2017-10-03T09:26:12.587Z,15.70
2017-10-03T09:28:41.531Z,15.70
2017-10-03T09:31:10.603Z,15.70
2017-10-03T09:33:39.980Z,15.80
2017-10-03T09:36:10.431Z,15.70
2017-10-03T09:38:40.309Z,15.70
2017-10-03T09:41:09.318Z,15.70
2017-10-03T09:43:38.351Z,15.60
2017-10-03T09:46:07.467Z,15.70
2017-10-03T09:48:36.437Z,15.70
2017-10-03T09:51:05.497Z,16.00
2017-10-03T09:53:34.497Z,16.00
2017-10-03T09:56:04.437Z,16.00
2017-10-03T09:58:33.440Z,16.10
2017-10-03T10:01:02.416Z,16.20
2017-10-03T10:03:31.444Z,16.20
2017-10-03T10:06:01.240Z,16.40
2017-10-03T10:08:31.049Z,16.80
2017-10-03T10:11:00.656Z,16.90
2017-10-03T10:13:29.613Z,17.40
2017-10-03T10:16:01.526Z,16.80
2017-10-03T10:18:31.251Z,16.80
2017-10-03T10:21:01.225Z,16.80
2017-10-03T10:23:30.577Z,16.40
2017-10-03T10:25:59.639Z,16.00
2017-10-03T10:28:29.352Z,15.20
2017-10-03T10:30:58.764Z,14.80
2017-10-03T10:33:27.805Z,14.40
2017-10-03T10:35:57.607Z,14.40
2017-10-03T10:38:26.621Z,14.50
2017-10-03T10:40:56.447Z,14.70
2017-10-03T10:43:25.929Z,15.00
2017-10-03T10:45:54.989Z,15.20
2017-10-03T10:48:24.043Z,15.50
2017-10-03T10:50:53.456Z,15.70
2017-10-03T10:53:23.799Z,16.00
2017-10-03T10:55:54.404Z,16.00
2017-10-03T10:58:23.446Z,16.30
2017-10-03T11:00:52.524Z,16.50
2017-10-03T11:03:21.611Z,16.90
2017-10-03T11:05:50.669Z,16.80
2017-10-03T11:08:20.445Z,16.50
2017-10-03T11:10:49.504Z,16.00
2017-10-03T11:13:18.442Z,15.60
2017-10-03T11:15:47.585Z,14.90
2017-10-03T11:18:16.930Z,14.50
2017-10-03T11:20:45.906Z,14.30
2017-10-03T11:23:28.064Z,14.00
2017-10-03T11:25:58.986Z,14.10
2017-10-03T11:28:28.445Z,14.30
2017-10-03T11:30:58.505Z,14.40
2017-10-03T11:33:27.865Z,14.40
2017-10-03T11:35:58.409Z,14.40
2017-10-03T11:38:27.399Z,14.20
2017-10-03T11:40:57.830Z,14.20
2017-10-03T11:43:27.298Z,14.40
2017-10-03T11:45:56.345Z,14.50
2017-10-03T11:48:26.214Z,14.90
2017-10-03T11:50:55.743Z,15.60
2017-10-03T11:53:24.877Z,15.60
2017-10-03T11:55:56.286Z,16.00
2017-10-03T11:58:26.115Z,16.60
2017-10-03T12:00:55.132Z,17.10
2017-10-03T12:03:24.853Z,17.60
2017-10-03T12:05:53.875Z,18.10
2017-10-03T12:08:23.166Z,18.60
2017-10-03T12:10:52.164Z,18.70
2017-10-03T12:13:21.176Z,18.50
2017-10-03T12:15:50.187Z,18.00
2017-10-03T12:18:19.172Z,17.20
2017-10-03T12:20:48.163Z,16.80
2017-10-03T12:23:18.644Z,16.50
2017-10-03T12:25:47.620Z,16.30
2017-10-03T12:28:16.581Z,16.40
2017-10-03T12:30:45.562Z,16.10
2017-10-03T12:33:14.550Z,16.50
2017-10-03T12:35:43.520Z,17.70
2017-10-03T12:38:12.488Z,18.70
2017-10-03T12:40:41.481Z,18.80
2017-10-03T12:43:11.319Z,19.40
2017-10-03T12:45:40.274Z,19.80
2017-10-03T12:48:09.245Z,20.20
2017-10-03T12:50:38.973Z,20.10
2017-10-03T12:53:08.004Z,20.00
2017-10-03T12:55:36.957Z,19.50
2017-10-03T12:58:06.132Z,19.60
2017-10-03T13:00:35.847Z,19.90
2017-10-03T13:03:05.583Z,20.50
2017-10-03T13:05:34.540Z,20.50
2017-10-03T13:08:03.504Z,20.90
2017-10-03T13:10:33.400Z,22.20
2017-10-03T13:13:02.377Z,22.00
2017-10-03T13:15:31.335Z,21.80
2017-10-03T13:18:01.106Z,21.70
2017-10-03T13:20:30.828Z,21.30
2017-10-03T13:22:59.836Z,21.20
2017-10-03T13:25:28.835Z,21.00
2017-10-03T13:27:58.629Z,20.70
2017-10-03T13:30:27.608Z,19.70
2017-10-03T13:32:56.568Z,18.70
2017-10-03T13:35:25.549Z,17.50
2017-10-03T13:37:54.567Z,17.70
2017-10-03T13:40:23.565Z,19.20
2017-10-03T13:42:52.549Z,20.30
2017-10-03T13:45:21.503Z,20.90
2017-10-03T13:47:51.237Z,21.60
2017-10-03T13:50:20.224Z,21.50
2017-10-03T13:52:49.220Z,21.30
2017-10-03T13:55:19.611Z,21.00
2017-10-03T13:57:49.312Z,21.60
2017-10-03T14:00:18.306Z,20.50
2017-10-03T14:02:48.116Z,18.40
2017-10-03T14:05:18.748Z,16.80
2017-10-03T14:07:47.740Z,15.40
2017-10-03T14:10:17.469Z,14.60
2017-10-03T14:12:46.580Z,14.20
2017-10-03T14:15:15.544Z,13.90
2017-10-03T14:17:45.288Z,13.80
2017-10-03T14:20:15.020Z,13.70
2017-10-03T14:22:44.000Z,13.70
2017-10-03T14:25:12.977Z,13.70
2017-10-03T14:27:42.005Z,13.80
2017-10-03T14:30:11.384Z,14.00
2017-10-03T14:32:41.164Z,14.00
2017-10-03T14:35:12.044Z,14.30
2017-10-03T14:37:41.032Z,15.20
2017-10-03T14:40:10.028Z,16.00
2017-10-03T14:42:39.009Z,16.40
2017-10-03T14:45:10.181Z,16.30
2017-10-03T14:47:40.034Z,16.10
2017-10-03T14:50:09.216Z,15.80
2017-10-03T14:52:40.534Z,15.80
2017-10-03T14:55:09.766Z,15.70
2017-10-03T14:57:39.596Z,15.70
2017-10-03T15:00:08.659Z,15.50
2017-10-03T15:02:38.584Z,15.30
2017-10-03T15:05:08.326Z,14.90
2017-10-03T15:07:37.747Z,14.70
2017-10-03T15:10:06.725Z,14.70
2017-10-03T15:12:36.510Z,14.90
2017-10-03T15:15:07.041Z,15.00
2017-10-03T15:17:36.000Z,15.00
2017-10-03T15:20:06.168Z,14.80
2017-10-03T15:22:36.134Z,14.70
2017-10-03T15:25:05.926Z,14.60
2017-10-03T15:27:34.917Z,14.60
2017-10-03T15:30:04.952Z,14.60
2017-10-03T15:32:35.326Z,14.50
2017-10-03T15:35:04.737Z,14.50
2017-10-03T15:37:35.441Z,14.40
2017-10-03T15:40:04.723Z,14.30
2017-10-03T15:42:34.151Z,14.30
2017-10-03T15:45:05.276Z,14.40
2017-10-03T15:47:34.714Z,14.30
2017-10-03T15:50:03.868Z,14.20
2017-10-03T15:52:35.565Z,14.20
2017-10-03T15:55:05.990Z,14.10
2017-10-03T15:57:35.419Z,14.20
2017-10-03T16:00:05.237Z,14.30
2017-10-03T16:02:35.150Z,14.30
2017-10-03T16:05:04.600Z,14.30
2017-10-03T16:07:35.637Z,14.30
2017-10-03T16:10:04.669Z,14.40
2017-10-03T16:12:33.812Z,14.40
2017-10-03T16:15:02.956Z,14.20
2017-10-03T16:17:32.040Z,14.20
2017-10-03T16:20:02.210Z,14.10
2017-10-03T16:22:31.632Z,14.10
2017-10-03T16:25:00.705Z,14.00
2017-10-03T16:27:29.712Z,14.00
2017-10-03T16:30:01.413Z,13.80
2017-10-03T16:32:30.547Z,13.80
2017-10-03T16:35:00.338Z,13.90
2017-10-03T16:37:30.165Z,13.90
2017-10-03T16:40:00.610Z,13.80
2017-10-03T16:42:30.650Z,13.80
2017-10-03T16:44:59.685Z,13.70
2017-10-03T16:47:29.436Z,13.80
2017-10-03T16:49:58.538Z,13.70
2017-10-03T16:52:28.979Z,13.70
2017-10-03T16:54:59.497Z,13.60
2017-10-03T16:57:28.480Z,13.60
2017-10-03T16:59:57.615Z,13.50
2017-10-03T17:02:27.427Z,13.50
2017-10-03T17:04:57.097Z,13.50
2017-10-03T17:07:26.043Z,13.60
2017-10-03T17:09:55.014Z,13.60
2017-10-03T17:12:23.996Z,13.60
2017-10-03T17:14:52.953Z,13.50
2017-10-03T17:17:23.005Z,13.40
2017-10-03T17:19:53.098Z,13.40
2017-10-03T17:22:22.967Z,13.30
2017-10-03T17:24:52.711Z,13.30
2017-10-03T17:27:22.127Z,13.30
2017-10-03T17:29:52.169Z,13.10
2017-10-03T17:32:25.966Z,13.30
2017-10-03T17:34:57.270Z,13.10
2017-10-03T17:37:27.684Z,13.20
2017-10-03T17:39:57.851Z,13.10
2017-10-03T17:42:27.005Z,13.10
2017-10-03T17:44:56.729Z,13.00
2017-10-03T17:47:25.746Z,13.00
2017-10-03T17:49:54.706Z,13.00
2017-10-03T17:52:24.449Z,13.00
2017-10-03T17:54:53.401Z,12.90
2017-10-03T17:57:23.278Z,13.00
2017-10-03T17:59:52.942Z,13.10
2017-10-03T18:02:23.644Z,13.00
2017-10-03T18:04:52.622Z,13.00
2017-10-03T18:07:21.647Z,12.90
2017-10-03T18:09:50.643Z,12.90
2017-10-03T18:12:19.613Z,13.00
2017-10-03T18:14:49.372Z,13.00
2017-10-03T18:17:18.762Z,12.90
2017-10-03T18:19:47.767Z,12.90
2017-10-03T18:22:17.152Z,13.00
2017-10-03T18:24:46.511Z,13.00
2017-10-03T18:27:15.498Z,13.00
2017-10-03T18:29:46.062Z,13.00
2017-10-03T18:32:15.102Z,13.00
2017-10-03T18:34:44.471Z,12.90
2017-10-03T18:37:13.473Z,12.90
2017-10-03T18:39:43.030Z,12.90
2017-10-03T18:42:12.799Z,12.90
2017-10-03T18:44:43.380Z,12.90
2017-10-03T18:47:13.505Z,12.70
2017-10-03T18:49:42.832Z,12.60
2017-10-03T18:52:12.701Z,12.60
2017-10-03T18:54:42.516Z,12.50
2017-10-03T18:57:11.542Z,12.50
2017-10-03T18:59:40.557Z,12.60
2017-10-03T19:02:09.976Z,12.60
2017-10-03T19:04:39.391Z,12.50
2017-10-03T19:07:08.516Z,12.50
2017-10-03T19:09:37.591Z,12.40
2017-10-03T19:12:06.623Z,12.40
2017-10-03T19:14:36.015Z,12.30
2017-10-03T19:17:05.199Z,12.30
2017-10-03T19:19:34.969Z,12.30
2017-10-03T19:22:04.498Z,12.20
2017-10-03T19:24:34.267Z,12.40
2017-10-03T19:27:03.284Z,12.30
2017-10-03T19:29:32.706Z,12.30
2017-10-03T19:32:02.456Z,12.30
2017-10-03T19:34:31.529Z,12.30
2017-10-03T19:37:00.580Z,12.90
2017-10-03T19:39:29.626Z,12.30
2017-10-03T19:41:58.620Z,12.30
2017-10-03T19:44:28.471Z,12.20
2017-10-03T19:47:00.186Z,12.10
2017-10-03T19:49:29.195Z,12.10
2017-10-03T19:51:58.249Z,12.10
2017-10-03T19:54:28.111Z,12.10
2017-10-03T19:56:57.099Z,12.30
2017-10-03T19:59:26.519Z,12.20
2017-10-03T20:01:56.070Z,12.20
2017-10-03T20:04:25.498Z,12.20
2017-10-03T20:07:04.500Z,12.20
2017-10-03T20:09:33.540Z,12.10
2017-10-03T20:12:02.523Z,12.10
2017-10-03T20:14:31.535Z,11.90
2017-10-03T20:17:00.525Z,12.00
2017-10-03T20:19:31.256Z,12.00
2017-10-03T20:22:00.233Z,12.00
2017-10-03T20:24:39.737Z,12.00
2017-10-03T20:27:08.731Z,12.00
2017-10-03T20:29:37.724Z,11.80
2017-10-03T20:32:06.736Z,11.80
2017-10-03T20:34:36.517Z,11.80
2017-10-03T20:37:06.413Z,11.80
2017-10-03T20:39:35.410Z,11.70
2017-10-03T20:42:04.407Z,11.90
2017-10-03T20:44:35.225Z,11.90
2017-10-03T20:47:04.185Z,12.00
2017-10-03T20:49:33.560Z,11.90
2017-10-03T20:52:02.916Z,11.70
2017-10-03T20:54:32.691Z,11.80
2017-10-03T20:57:01.680Z,11.90
2017-10-03T20:59:31.422Z,11.80
2017-10-03T21:02:00.415Z,11.80
2017-10-03T21:04:30.183Z,11.90
2017-10-03T21:06:59.204Z,11.80
2017-10-03T21:09:28.559Z,11.80
2017-10-03T21:11:58.334Z,11.70
2017-10-03T21:14:27.285Z,11.70
2017-10-03T21:16:56.265Z,11.80
2017-10-03T21:19:25.229Z,11.70
2017-10-03T21:21:54.232Z,11.70
2017-10-03T21:24:23.183Z,11.70
2017-10-03T21:26:52.961Z,11.70
2017-10-03T21:29:21.920Z,11.60
2017-10-03T21:31:51.682Z,11.70
2017-10-03T21:34:21.518Z,11.70
2017-10-03T21:36:50.465Z,11.70
2017-10-03T21:39:19.440Z,11.90
2017-10-03T21:42:00.268Z,11.90
2017-10-03T21:44:29.613Z,11.90
2017-10-03T21:46:58.593Z,11.90
2017-10-03T21:49:27.604Z,11.70
2017-10-03T21:51:56.702Z,11.70
2017-10-03T21:54:26.908Z,11.80
2017-10-03T21:56:56.661Z,11.80
2017-10-03T21:59:26.438Z,11.80
2017-10-03T22:01:55.385Z,11.80
2017-10-03T22:04:24.805Z,11.90
2017-10-03T22:06:53.762Z,11.90
2017-10-03T22:09:22.734Z,11.80
2017-10-03T22:11:51.708Z,11.80
2017-10-03T22:14:20.689Z,11.90
2017-10-03T22:16:49.691Z,12.00
2017-10-03T22:19:19.059Z,11.90
2017-10-03T22:21:48.037Z,11.90
2017-10-03T22:24:17.750Z,11.80
2017-10-03T22:26:47.480Z,11.80
2017-10-03T22:29:16.841Z,11.80
2017-10-03T22:31:47.388Z,11.80
2017-10-03T22:34:17.099Z,11.80
2017-10-03T22:36:46.835Z,12.00
2017-10-03T22:39:15.801Z,11.90
2017-10-03T22:41:44.773Z,12.00
2017-10-03T22:44:14.524Z,12.10
2017-10-03T22:46:43.509Z,12.10
2017-10-03T22:49:12.453Z,12.00
2017-10-03T22:52:01.137Z,11.90
2017-10-03T22:54:30.484Z,11.90
2017-10-03T22:56:59.473Z,12.00
2017-10-03T22:59:28.433Z,11.90
2017-10-03T23:01:57.399Z,11.90
2017-10-03T23:04:26.777Z,12.00
2017-10-03T23:06:55.728Z,11.90
2017-10-03T23:09:24.713Z,12.00
2017-10-03T23:11:54.498Z,12.00
2017-10-03T23:14:23.479Z,12.00
2017-10-03T23:16:52.443Z,12.00
2017-10-03T23:19:21.412Z,12.00
2017-10-03T23:21:50.372Z,12.00
2017-10-03T23:24:19.721Z,12.00
2017-10-03T23:26:49.092Z,12.00
2017-10-03T23:29:18.039Z,12.00
2017-10-03T23:31:47.098Z,11.90
2017-10-03T23:34:16.480Z,12.00
2017-10-03T23:36:45.843Z,11.90
2017-10-03T23:39:15.661Z,11.90
2017-10-03T23:41:44.627Z,11.90
2017-10-03T23:44:13.555Z,11.90
2017-10-03T23:46:42.940Z,11.90
2017-10-03T23:49:12.288Z,11.90
2017-10-03T23:51:41.266Z,11.80
2017-10-03T23:54:10.634Z,11.80
2017-10-03T23:56:39.630Z,11.80
2017-10-03T23:59:08.596Z,11.80
